sensor_id;sensor_type;location;lat;lon;timestamp;P1;durP1;ratioP1;P2;durP2;ratioP2
1308;SDS011;647;48.840;9.314;2023-02-11T00:00:53;97.45;;;26.27;;
1308;SDS011;647;48.840;9.314;2023-02-11T00:03:21;101.47;;;26.67;;
1308;SDS011;647;48.840;9.314;2023-02-11T00:05:55;98.35;;;25.75;;
1308;SDS011;647;48.840;9.314;2023-02-11T00:08:22;94.25;;;25.63;;
1308;SDS011;647;48.840;9.314;2023-02-11T00:10:50;91.57;;;25.45;;
1308;SDS011;647;48.840;9.314;2023-02-11T00:13:17;97.25;;;26.75;;
1308;SDS011;647;48.840;9.314;2023-02-11T00:15:44;89.03;;;23.92;;
1308;SDS011;647;48.840;9.314;2023-02-11T00:18:11;94.35;;;25.17;;
1308;SDS011;647;48.840;9.314;2023-02-11T00:20:40;97.72;;;26.88;;
1308;SDS011;647;48.840;9.314;2023-02-11T00:23:07;93.68;;;25.02;;
1308;SDS011;647;48.840;9.314;2023-02-11T00:25:37;93.82;;;27.38;;
1308;SDS011;647;48.840;9.314;2023-02-11T00:28:04;93.95;;;25.30;;
1308;SDS011;647;48.840;9.314;2023-02-11T00:30:31;97.93;;;26.75;;
1308;SDS011;647;48.840;9.314;2023-02-11T00:32:58;106.47;;;27.23;;
1308;SDS011;647;48.840;9.314;2023-02-11T00:35:25;98.38;;;27.20;;
1308;SDS011;647;48.840;9.314;2023-02-11T00:37:54;99.47;;;26.73;;
1308;SDS011;647;48.840;9.314;2023-02-11T00:40:21;107.22;;;27.05;;
1308;SDS011;647;48.840;9.314;2023-02-11T00:42:48;108.18;;;27.17;;
1308;SDS011;647;48.840;9.314;2023-02-11T00:45:15;97.68;;;27.90;;
1308;SDS011;647;48.840;9.314;2023-02-11T00:47:44;98.35;;;28.05;;
1308;SDS011;647;48.840;9.314;2023-02-11T00:50:11;97.18;;;26.98;;
1308;SDS011;647;48.840;9.314;2023-02-11T00:52:39;101.60;;;26.50;;
1308;SDS011;647;48.840;9.314;2023-02-11T00:55:08;96.60;;;26.35;;
1308;SDS011;647;48.840;9.314;2023-02-11T00:57:35;102.47;;;26.75;;
1308;SDS011;647;48.840;9.314;2023-02-11T01:00:02;98.18;;;24.77;;
1308;SDS011;647;48.840;9.314;2023-02-11T01:02:30;101.45;;;26.95;;
1308;SDS011;647;48.840;9.314;2023-02-11T01:04:57;97.75;;;27.63;;
1308;SDS011;647;48.840;9.314;2023-02-11T01:07:25;100.13;;;25.10;;
1308;SDS011;647;48.840;9.314;2023-02-11T01:09:52;95.07;;;26.70;;
1308;SDS011;647;48.840;9.314;2023-02-11T01:12:21;107.10;;;29.83;;
1308;SDS011;647;48.840;9.314;2023-02-11T01:14:48;99.72;;;26.92;;
1308;SDS011;647;48.840;9.314;2023-02-11T01:17:15;99.57;;;26.42;;
1308;SDS011;647;48.840;9.314;2023-02-11T01:19:42;90.68;;;24.95;;
1308;SDS011;647;48.840;9.314;2023-02-11T01:22:10;100.05;;;28.70;;
1308;SDS011;647;48.840;9.314;2023-02-11T01:24:37;101.15;;;26.13;;
1308;SDS011;647;48.840;9.314;2023-02-11T01:27:04;97.47;;;26.85;;
1308;SDS011;647;48.840;9.314;2023-02-11T01:29:32;94.22;;;25.23;;
1308;SDS011;647;48.840;9.314;2023-02-11T01:31:59;92.97;;;26.33;;
1308;SDS011;647;48.840;9.314;2023-02-11T01:34:27;98.32;;;26.05;;
1308;SDS011;647;48.840;9.314;2023-02-11T01:36:55;93.10;;;25.15;;
1308;SDS011;647;48.840;9.314;2023-02-11T01:39:23;95.38;;;25.10;;
1308;SDS011;647;48.840;9.314;2023-02-11T01:41:50;103.25;;;27.52;;
1308;SDS011;647;48.840;9.314;2023-02-11T01:44:21;90.75;;;25.88;;
1308;SDS011;647;48.840;9.314;2023-02-11T01:46:50;96.80;;;26.60;;
1308;SDS011;647;48.840;9.314;2023-02-11T01:49:18;95.65;;;25.38;;
1308;SDS011;647;48.840;9.314;2023-02-11T01:51:47;96.22;;;25.38;;
1308;SDS011;647;48.840;9.314;2023-02-11T01:54:16;100.65;;;27.35;;
1308;SDS011;647;48.840;9.314;2023-02-11T01:56:58;100.03;;;26.58;;
1308;SDS011;647;48.840;9.314;2023-02-11T01:59:45;94.90;;;24.92;;
1308;SDS011;647;48.840;9.314;2023-02-11T02:02:16;98.65;;;26.02;;
1308;SDS011;647;48.840;9.314;2023-02-11T02:04:45;96.32;;;26.08;;
1308;SDS011;647;48.840;9.314;2023-02-11T02:07:16;98.57;;;25.73;;
1308;SDS011;647;48.840;9.314;2023-02-11T02:09:44;97.82;;;26.52;;
1308;SDS011;647;48.840;9.314;2023-02-11T02:12:15;101.68;;;29.48;;
1308;SDS011;647;48.840;9.314;2023-02-11T02:14:42;97.13;;;26.45;;
1308;SDS011;647;48.840;9.314;2023-02-11T02:17:09;93.88;;;25.17;;
1308;SDS011;647;48.840;9.314;2023-02-11T02:22:30;94.20;;;25.00;;
1308;SDS011;647;48.840;9.314;2023-02-11T02:25:18;101.78;;;25.85;;
1308;SDS011;647;48.840;9.314;2023-02-11T02:27:52;92.88;;;23.77;;
1308;SDS011;647;48.840;9.314;2023-02-11T02:36:01;97.18;;;26.27;;
1308;SDS011;647;48.840;9.314;2023-02-11T02:38:32;98.03;;;26.70;;
1308;SDS011;647;48.840;9.314;2023-02-11T02:41:02;101.53;;;27.55;;
1308;SDS011;647;48.840;9.314;2023-02-11T02:43:29;96.45;;;26.85;;
1308;SDS011;647;48.840;9.314;2023-02-11T02:46:08;97.93;;;26.17;;
1308;SDS011;647;48.840;9.314;2023-02-11T02:48:35;93.35;;;26.50;;
1308;SDS011;647;48.840;9.314;2023-02-11T02:51:06;100.13;;;25.23;;
1308;SDS011;647;48.840;9.314;2023-02-11T02:53:40;96.10;;;25.58;;
1308;SDS011;647;48.840;9.314;2023-02-11T02:56:11;95.97;;;27.88;;
1308;SDS011;647;48.840;9.314;2023-02-11T02:58:48;99.63;;;27.20;;
1308;SDS011;647;48.840;9.314;2023-02-11T03:01:20;98.80;;;26.85;;
1308;SDS011;647;48.840;9.314;2023-02-11T03:03:52;93.60;;;25.30;;
1308;SDS011;647;48.840;9.314;2023-02-11T03:06:26;99.47;;;27.25;;
1308;SDS011;647;48.840;9.314;2023-02-11T03:08:58;99.20;;;26.50;;
1308;SDS011;647;48.840;9.314;2023-02-11T03:11:26;88.50;;;24.20;;
1308;SDS011;647;48.840;9.314;2023-02-11T03:13:55;91.72;;;25.02;;
1308;SDS011;647;48.840;9.314;2023-02-11T03:16:23;94.78;;;26.60;;
1308;SDS011;647;48.840;9.314;2023-02-11T03:18:54;97.85;;;24.15;;
1308;SDS011;647;48.840;9.314;2023-02-11T03:21:23;96.47;;;25.92;;
1308;SDS011;647;48.840;9.314;2023-02-11T03:23:52;97.40;;;27.02;;
1308;SDS011;647;48.840;9.314;2023-02-11T03:26:22;93.63;;;24.92;;
1308;SDS011;647;48.840;9.314;2023-02-11T03:28:52;95.68;;;25.60;;
1308;SDS011;647;48.840;9.314;2023-02-11T03:31:22;95.45;;;24.33;;
1308;SDS011;647;48.840;9.314;2023-02-11T03:33:56;104.78;;;29.15;;
1308;SDS011;647;48.840;9.314;2023-02-11T03:36:27;95.03;;;25.20;;
1308;SDS011;647;48.840;9.314;2023-02-11T03:38:59;105.65;;;27.80;;
1308;SDS011;647;48.840;9.314;2023-02-11T03:41:28;94.93;;;25.95;;
1308;SDS011;647;48.840;9.314;2023-02-11T03:43:56;90.10;;;24.17;;
1308;SDS011;647;48.840;9.314;2023-02-11T03:46:26;105.18;;;28.52;;
1308;SDS011;647;48.840;9.314;2023-02-11T03:48:55;95.30;;;24.85;;
1308;SDS011;647;48.840;9.314;2023-02-11T03:51:24;95.53;;;26.73;;
1308;SDS011;647;48.840;9.314;2023-02-11T03:53:54;95.55;;;26.20;;
1308;SDS011;647;48.840;9.314;2023-02-11T03:56:24;93.65;;;25.90;;
1308;SDS011;647;48.840;9.314;2023-02-11T03:58:52;86.53;;;22.98;;
1308;SDS011;647;48.840;9.314;2023-02-11T04:01:19;95.30;;;25.70;;
1308;SDS011;647;48.840;9.314;2023-02-11T04:03:46;92.75;;;25.33;;
1308;SDS011;647;48.840;9.314;2023-02-11T04:06:14;102.82;;;25.23;;
1308;SDS011;647;48.840;9.314;2023-02-11T04:08:41;93.15;;;24.13;;
1308;SDS011;647;48.840;9.314;2023-02-11T04:11:08;95.93;;;24.92;;
1308;SDS011;647;48.840;9.314;2023-02-11T04:13:36;95.63;;;25.50;;
1308;SDS011;647;48.840;9.314;2023-02-11T04:16:03;94.20;;;25.50;;
1308;SDS011;647;48.840;9.314;2023-02-11T04:18:31;99.25;;;27.67;;
1308;SDS011;647;48.840;9.314;2023-02-11T04:20:58;95.47;;;25.55;;
1308;SDS011;647;48.840;9.314;2023-02-11T04:23:25;97.15;;;26.40;;
1308;SDS011;647;48.840;9.314;2023-02-11T04:25:52;96.70;;;26.33;;
1308;SDS011;647;48.840;9.314;2023-02-11T04:28:19;103.43;;;27.58;;
1308;SDS011;647;48.840;9.314;2023-02-11T04:30:49;92.50;;;25.88;;
1308;SDS011;647;48.840;9.314;2023-02-11T04:33:16;93.03;;;24.67;;
1308;SDS011;647;48.840;9.314;2023-02-11T04:35:43;91.72;;;25.67;;
1308;SDS011;647;48.840;9.314;2023-02-11T04:38:10;94.68;;;25.98;;
1308;SDS011;647;48.840;9.314;2023-02-11T04:40:38;96.53;;;27.55;;
1308;SDS011;647;48.840;9.314;2023-02-11T04:43:05;94.50;;;24.50;;
1308;SDS011;647;48.840;9.314;2023-02-11T04:45:32;91.88;;;26.35;;
1308;SDS011;647;48.840;9.314;2023-02-11T04:48:01;96.07;;;26.23;;
1308;SDS011;647;48.840;9.314;2023-02-11T04:50:28;95.60;;;25.77;;
1308;SDS011;647;48.840;9.314;2023-02-11T04:52:56;92.68;;;25.20;;
1308;SDS011;647;48.840;9.314;2023-02-11T04:55:23;92.00;;;24.55;;
1308;SDS011;647;48.840;9.314;2023-02-11T04:57:50;99.80;;;24.40;;
1308;SDS011;647;48.840;9.314;2023-02-11T05:00:17;93.55;;;24.63;;
1308;SDS011;647;48.840;9.314;2023-02-11T05:02:44;93.97;;;25.08;;
1308;SDS011;647;48.840;9.314;2023-02-11T05:05:13;95.22;;;24.02;;
1308;SDS011;647;48.840;9.314;2023-02-11T05:07:40;96.32;;;25.42;;
1308;SDS011;647;48.840;9.314;2023-02-11T05:10:07;95.78;;;24.80;;
1308;SDS011;647;48.840;9.314;2023-02-11T05:12:34;96.70;;;25.40;;
1308;SDS011;647;48.840;9.314;2023-02-11T05:15:01;100.68;;;26.42;;
1308;SDS011;647;48.840;9.314;2023-02-11T05:17:28;91.70;;;25.48;;
1308;SDS011;647;48.840;9.314;2023-02-11T05:19:55;93.85;;;26.13;;
1308;SDS011;647;48.840;9.314;2023-02-11T05:22:24;99.47;;;23.98;;
1308;SDS011;647;48.840;9.314;2023-02-11T05:24:51;91.75;;;24.80;;
1308;SDS011;647;48.840;9.314;2023-02-11T05:27:18;92.60;;;26.75;;
1308;SDS011;647;48.840;9.314;2023-02-11T05:29:45;93.63;;;25.20;;
1308;SDS011;647;48.840;9.314;2023-02-11T05:32:12;94.30;;;23.67;;
1308;SDS011;647;48.840;9.314;2023-02-11T05:34:39;93.95;;;25.80;;
1308;SDS011;647;48.840;9.314;2023-02-11T05:37:06;93.93;;;25.55;;
1308;SDS011;647;48.840;9.314;2023-02-11T05:39:35;93.63;;;24.48;;
1308;SDS011;647;48.840;9.314;2023-02-11T05:42:02;95.70;;;25.13;;
1308;SDS011;647;48.840;9.314;2023-02-11T05:44:29;91.85;;;23.60;;
1308;SDS011;647;48.840;9.314;2023-02-11T05:46:56;94.63;;;26.38;;
1308;SDS011;647;48.840;9.314;2023-02-11T05:49:24;93.65;;;27.05;;
1308;SDS011;647;48.840;9.314;2023-02-11T05:51:51;98.38;;;27.73;;
1308;SDS011;647;48.840;9.314;2023-02-11T05:54:18;98.13;;;26.15;;
1308;SDS011;647;48.840;9.314;2023-02-11T05:56:46;89.93;;;24.50;;
1308;SDS011;647;48.840;9.314;2023-02-11T05:59:13;91.72;;;24.45;;
1308;SDS011;647;48.840;9.314;2023-02-11T06:01:41;99.97;;;27.52;;
1308;SDS011;647;48.840;9.314;2023-02-11T06:04:08;90.80;;;24.65;;
1308;SDS011;647;48.840;9.314;2023-02-11T06:06:35;97.22;;;27.88;;
1308;SDS011;647;48.840;9.314;2023-02-11T06:09:02;90.95;;;24.50;;
1308;SDS011;647;48.840;9.314;2023-02-11T06:11:29;93.40;;;25.90;;
1308;SDS011;647;48.840;9.314;2023-02-11T06:13:58;97.03;;;26.48;;
1308;SDS011;647;48.840;9.314;2023-02-11T06:16:25;92.97;;;25.50;;
1308;SDS011;647;48.840;9.314;2023-02-11T06:18:52;88.93;;;23.77;;
1308;SDS011;647;48.840;9.314;2023-02-11T06:21:19;95.97;;;27.05;;
1308;SDS011;647;48.840;9.314;2023-02-11T06:23:46;93.00;;;25.40;;
1308;SDS011;647;48.840;9.314;2023-02-11T06:26:15;91.85;;;24.30;;
1308;SDS011;647;48.840;9.314;2023-02-11T06:28:42;92.32;;;26.00;;
1308;SDS011;647;48.840;9.314;2023-02-11T06:31:11;98.35;;;27.25;;
1308;SDS011;647;48.840;9.314;2023-02-11T06:33:38;90.75;;;24.70;;
1308;SDS011;647;48.840;9.314;2023-02-11T06:36:10;92.78;;;24.67;;
1308;SDS011;647;48.840;9.314;2023-02-11T06:38:38;91.07;;;24.52;;
1308;SDS011;647;48.840;9.314;2023-02-11T06:41:05;98.05;;;28.13;;
1308;SDS011;647;48.840;9.314;2023-02-11T06:43:32;92.82;;;24.52;;
1308;SDS011;647;48.840;9.314;2023-02-11T06:45:59;95.20;;;29.42;;
1308;SDS011;647;48.840;9.314;2023-02-11T06:48:28;89.90;;;26.55;;
1308;SDS011;647;48.840;9.314;2023-02-11T06:50:55;95.07;;;25.58;;
1308;SDS011;647;48.840;9.314;2023-02-11T06:53:22;94.13;;;25.50;;
1308;SDS011;647;48.840;9.314;2023-02-11T06:55:49;98.93;;;26.27;;
1308;SDS011;647;48.840;9.314;2023-02-11T06:58:16;90.22;;;25.33;;
1308;SDS011;647;48.840;9.314;2023-02-11T07:00:43;87.90;;;23.90;;
1308;SDS011;647;48.840;9.314;2023-02-11T07:03:10;90.82;;;25.73;;
1308;SDS011;647;48.840;9.314;2023-02-11T07:05:39;93.25;;;25.38;;
1308;SDS011;647;48.840;9.314;2023-02-11T07:08:08;93.32;;;26.70;;
1308;SDS011;647;48.840;9.314;2023-02-11T07:10:35;88.28;;;24.17;;
1308;SDS011;647;48.840;9.314;2023-02-11T07:13:02;94.00;;;26.10;;
1308;SDS011;647;48.840;9.314;2023-02-11T07:15:29;92.97;;;27.20;;
1308;SDS011;647;48.840;9.314;2023-02-11T07:17:56;92.68;;;25.25;;
1308;SDS011;647;48.840;9.314;2023-02-11T07:20:23;94.18;;;25.85;;
1308;SDS011;647;48.840;9.314;2023-02-11T07:22:52;98.40;;;25.80;;
1308;SDS011;647;48.840;9.314;2023-02-11T07:25:19;92.97;;;25.08;;
1308;SDS011;647;48.840;9.314;2023-02-11T07:27:46;95.13;;;26.20;;
1308;SDS011;647;48.840;9.314;2023-02-11T07:30:14;95.53;;;28.70;;
1308;SDS011;647;48.840;9.314;2023-02-11T07:32:41;93.03;;;25.98;;
1308;SDS011;647;48.840;9.314;2023-02-11T07:35:08;96.35;;;26.05;;
1308;SDS011;647;48.840;9.314;2023-02-11T07:37:35;91.20;;;25.58;;
1308;SDS011;647;48.840;9.314;2023-02-11T07:40:04;90.00;;;26.13;;
1308;SDS011;647;48.840;9.314;2023-02-11T07:42:33;99.57;;;27.45;;
1308;SDS011;647;48.840;9.314;2023-02-11T07:45:00;92.38;;;25.42;;
1308;SDS011;647;48.840;9.314;2023-02-11T07:47:28;95.30;;;27.27;;
1308;SDS011;647;48.840;9.314;2023-02-11T07:49:55;92.13;;;25.35;;
1308;SDS011;647;48.840;9.314;2023-02-11T07:52:22;94.18;;;26.08;;
1308;SDS011;647;48.840;9.314;2023-02-11T07:54:49;96.22;;;27.35;;
1308;SDS011;647;48.840;9.314;2023-02-11T07:57:17;92.95;;;28.15;;
1308;SDS011;647;48.840;9.314;2023-02-11T07:59:44;95.43;;;26.08;;
1308;SDS011;647;48.840;9.314;2023-02-11T08:02:11;98.97;;;28.98;;
1308;SDS011;647;48.840;9.314;2023-02-11T08:04:39;93.13;;;25.35;;
1308;SDS011;647;48.840;9.314;2023-02-11T08:07:06;96.13;;;27.63;;
1308;SDS011;647;48.840;9.314;2023-02-11T08:09:33;95.70;;;27.45;;
1308;SDS011;647;48.840;9.314;2023-02-11T08:12:00;97.82;;;27.30;;
1308;SDS011;647;48.840;9.314;2023-02-11T08:14:28;95.95;;;29.83;;
1308;SDS011;647;48.840;9.314;2023-02-11T08:16:56;96.13;;;27.13;;
1308;SDS011;647;48.840;9.314;2023-02-11T08:19:24;89.85;;;24.98;;
1308;SDS011;647;48.840;9.314;2023-02-11T08:21:53;94.15;;;26.00;;
1308;SDS011;647;48.840;9.314;2023-02-11T08:24:20;90.97;;;26.33;;
1308;SDS011;647;48.840;9.314;2023-02-11T08:26:48;92.50;;;26.50;;
1308;SDS011;647;48.840;9.314;2023-02-11T08:29:15;94.45;;;26.60;;
1308;SDS011;647;48.840;9.314;2023-02-11T08:31:44;91.25;;;26.13;;
1308;SDS011;647;48.840;9.314;2023-02-11T08:34:12;91.47;;;27.33;;
1308;SDS011;647;48.840;9.314;2023-02-11T08:36:42;94.38;;;28.60;;
1308;SDS011;647;48.840;9.314;2023-02-11T08:39:11;93.53;;;27.15;;
1308;SDS011;647;48.840;9.314;2023-02-11T08:41:38;95.38;;;27.50;;
1308;SDS011;647;48.840;9.314;2023-02-11T08:44:06;86.85;;;24.85;;
1308;SDS011;647;48.840;9.314;2023-02-11T08:46:33;90.85;;;25.65;;
1308;SDS011;647;48.840;9.314;2023-02-11T08:49:01;97.68;;;27.67;;
1308;SDS011;647;48.840;9.314;2023-02-11T08:51:28;92.03;;;24.90;;
1308;SDS011;647;48.840;9.314;2023-02-11T08:53:56;89.43;;;25.95;;
1308;SDS011;647;48.840;9.314;2023-02-11T08:56:23;92.65;;;25.30;;
1308;SDS011;647;48.840;9.314;2023-02-11T08:58:51;93.97;;;26.40;;
1308;SDS011;647;48.840;9.314;2023-02-11T09:01:19;92.93;;;26.63;;
1308;SDS011;647;48.840;9.314;2023-02-11T09:03:46;95.40;;;26.95;;
1308;SDS011;647;48.840;9.314;2023-02-11T09:06:15;92.78;;;27.83;;
1308;SDS011;647;48.840;9.314;2023-02-11T09:08:43;90.35;;;25.02;;
1308;SDS011;647;48.840;9.314;2023-02-11T09:11:10;87.03;;;25.20;;
1308;SDS011;647;48.840;9.314;2023-02-11T09:13:39;89.72;;;24.77;;
1308;SDS011;647;48.840;9.314;2023-02-11T09:16:07;91.00;;;23.48;;
1308;SDS011;647;48.840;9.314;2023-02-11T09:18:34;89.80;;;23.30;;
1308;SDS011;647;48.840;9.314;2023-02-11T09:21:02;87.00;;;23.83;;
1308;SDS011;647;48.840;9.314;2023-02-11T09:23:31;86.63;;;23.33;;
1308;SDS011;647;48.840;9.314;2023-02-11T09:25:58;93.70;;;23.77;;
1308;SDS011;647;48.840;9.314;2023-02-11T09:28:26;86.75;;;23.80;;
1308;SDS011;647;48.840;9.314;2023-02-11T09:30:53;85.03;;;22.00;;
1308;SDS011;647;48.840;9.314;2023-02-11T09:33:20;85.03;;;21.25;;
1308;SDS011;647;48.840;9.314;2023-02-11T09:35:47;81.05;;;19.60;;
1308;SDS011;647;48.840;9.314;2023-02-11T09:38:14;83.45;;;21.88;;
1308;SDS011;647;48.840;9.314;2023-02-11T09:40:43;83.60;;;20.17;;
1308;SDS011;647;48.840;9.314;2023-02-11T09:43:10;88.32;;;24.85;;
1308;SDS011;647;48.840;9.314;2023-02-11T09:45:42;82.72;;;20.00;;
1308;SDS011;647;48.840;9.314;2023-02-11T09:48:09;82.50;;;20.40;;
1308;SDS011;647;48.840;9.314;2023-02-11T09:50:40;81.32;;;19.80;;
1308;SDS011;647;48.840;9.314;2023-02-11T09:53:09;82.30;;;19.77;;
1308;SDS011;647;48.840;9.314;2023-02-11T09:55:39;82.47;;;20.83;;
1308;SDS011;647;48.840;9.314;2023-02-11T09:58:10;82.38;;;18.80;;
1308;SDS011;647;48.840;9.314;2023-02-11T10:00:39;83.87;;;20.27;;
1308;SDS011;647;48.840;9.314;2023-02-11T10:03:20;86.43;;;21.47;;
1308;SDS011;647;48.840;9.314;2023-02-11T10:06:00;83.33;;;19.20;;
1308;SDS011;647;48.840;9.314;2023-02-11T10:08:29;79.10;;;17.30;;
1308;SDS011;647;48.840;9.314;2023-02-11T10:11:00;77.77;;;18.60;;
1308;SDS011;647;48.840;9.314;2023-02-11T10:13:34;75.30;;;16.70;;
1308;SDS011;647;48.840;9.314;2023-02-11T10:16:08;77.83;;;19.23;;
1308;SDS011;647;48.840;9.314;2023-02-11T10:18:44;78.03;;;18.43;;
1308;SDS011;647;48.840;9.314;2023-02-11T10:21:15;75.57;;;19.40;;
1308;SDS011;647;48.840;9.314;2023-02-11T10:23:45;76.47;;;19.33;;
1308;SDS011;647;48.840;9.314;2023-02-11T10:26:16;80.87;;;22.77;;
1308;SDS011;647;48.840;9.314;2023-02-11T10:28:46;78.17;;;20.60;;
1308;SDS011;647;48.840;9.314;2023-02-11T10:31:14;74.47;;;19.20;;
1308;SDS011;647;48.840;9.314;2023-02-11T10:33:42;83.37;;;21.00;;
1308;SDS011;647;48.840;9.314;2023-02-11T10:36:11;73.60;;;16.47;;
1308;SDS011;647;48.840;9.314;2023-02-11T10:38:38;68.70;;;12.63;;
1308;SDS011;647;48.840;9.314;2023-02-11T10:41:05;69.60;;;12.73;;
1308;SDS011;647;48.840;9.314;2023-02-11T10:43:35;69.60;;;14.10;;
1308;SDS011;647;48.840;9.314;2023-02-11T10:46:04;66.83;;;12.40;;
1308;SDS011;647;48.840;9.314;2023-02-11T10:48:36;67.37;;;11.80;;
1308;SDS011;647;48.840;9.314;2023-02-11T10:51:05;69.83;;;12.80;;
1308;SDS011;647;48.840;9.314;2023-02-11T10:53:33;69.53;;;13.30;;
1308;SDS011;647;48.840;9.314;2023-02-11T10:56:00;69.33;;;12.80;;
1308;SDS011;647;48.840;9.314;2023-02-11T10:58:29;66.97;;;12.00;;
1308;SDS011;647;48.840;9.314;2023-02-11T11:00:57;66.10;;;10.67;;
1308;SDS011;647;48.840;9.314;2023-02-11T11:03:28;65.77;;;10.47;;
1308;SDS011;647;48.840;9.314;2023-02-11T11:05:57;68.00;;;12.23;;
1308;SDS011;647;48.840;9.314;2023-02-11T11:08:36;66.53;;;11.53;;
1308;SDS011;647;48.840;9.314;2023-02-11T11:11:04;71.20;;;11.30;;
1308;SDS011;647;48.840;9.314;2023-02-11T11:13:33;68.20;;;12.17;;
1308;SDS011;647;48.840;9.314;2023-02-11T11:19:18;67.10;;;11.70;;
1308;SDS011;647;48.840;9.314;2023-02-11T11:21:46;64.37;;;11.13;;
1308;SDS011;647;48.840;9.314;2023-02-11T11:24:15;67.50;;;11.87;;
1308;SDS011;647;48.840;9.314;2023-02-11T11:26:43;65.93;;;11.20;;
1308;SDS011;647;48.840;9.314;2023-02-11T11:29:12;66.67;;;11.33;;
1308;SDS011;647;48.840;9.314;2023-02-11T11:31:44;69.10;;;12.00;;
1308;SDS011;647;48.840;9.314;2023-02-11T11:34:17;66.97;;;11.40;;
1308;SDS011;647;48.840;9.314;2023-02-11T11:36:46;68.17;;;11.03;;
1308;SDS011;647;48.840;9.314;2023-02-11T11:39:16;65.90;;;11.20;;
1308;SDS011;647;48.840;9.314;2023-02-11T11:41:54;65.10;;;10.53;;
1308;SDS011;647;48.840;9.314;2023-02-11T11:44:26;67.67;;;11.17;;
1308;SDS011;647;48.840;9.314;2023-02-11T11:47:03;68.90;;;10.67;;
1308;SDS011;647;48.840;9.314;2023-02-11T11:49:35;65.30;;;9.80;;
1308;SDS011;647;48.840;9.314;2023-02-11T11:52:09;68.77;;;8.90;;
1308;SDS011;647;48.840;9.314;2023-02-11T11:54:37;66.20;;;10.37;;
1308;SDS011;647;48.840;9.314;2023-02-11T11:57:09;66.87;;;10.23;;
1308;SDS011;647;48.840;9.314;2023-02-11T11:59:37;64.37;;;8.77;;
1308;SDS011;647;48.840;9.314;2023-02-11T12:02:10;63.67;;;9.27;;
1308;SDS011;647;48.840;9.314;2023-02-11T12:04:54;64.57;;;9.10;;
1308;SDS011;647;48.840;9.314;2023-02-11T12:07:28;63.90;;;8.93;;
1308;SDS011;647;48.840;9.314;2023-02-11T12:12:45;64.20;;;9.33;;
1308;SDS011;647;48.840;9.314;2023-02-11T12:15:22;65.87;;;10.57;;
1308;SDS011;647;48.840;9.314;2023-02-11T12:17:55;64.93;;;8.80;;
1308;SDS011;647;48.840;9.314;2023-02-11T12:20:28;75.47;;;10.23;;
1308;SDS011;647;48.840;9.314;2023-02-11T12:23:01;64.50;;;9.70;;
1308;SDS011;647;48.840;9.314;2023-02-11T12:25:32;64.57;;;9.07;;
1308;SDS011;647;48.840;9.314;2023-02-11T12:28:04;64.47;;;10.37;;
1308;SDS011;647;48.840;9.314;2023-02-11T12:30:38;67.10;;;9.77;;
1308;SDS011;647;48.840;9.314;2023-02-11T12:33:09;66.30;;;10.63;;
1308;SDS011;647;48.840;9.314;2023-02-11T12:35:41;64.70;;;10.17;;
1308;SDS011;647;48.840;9.314;2023-02-11T12:38:16;69.87;;;11.43;;
1308;SDS011;647;48.840;9.314;2023-02-11T12:40:49;68.07;;;11.00;;
1308;SDS011;647;48.840;9.314;2023-02-11T12:43:20;68.47;;;11.10;;
1308;SDS011;647;48.840;9.314;2023-02-11T12:45:57;70.50;;;11.67;;
1308;SDS011;647;48.840;9.314;2023-02-11T12:48:31;67.93;;;11.53;;
1308;SDS011;647;48.840;9.314;2023-02-11T12:51:04;72.47;;;11.97;;
1308;SDS011;647;48.840;9.314;2023-02-11T12:53:37;67.77;;;11.20;;
1308;SDS011;647;48.840;9.314;2023-02-11T12:56:10;67.60;;;11.50;;
1308;SDS011;647;48.840;9.314;2023-02-11T12:58:39;69.97;;;12.93;;
1308;SDS011;647;48.840;9.314;2023-02-11T13:01:07;72.77;;;14.27;;
1308;SDS011;647;48.840;9.314;2023-02-11T13:03:36;71.70;;;13.37;;
1308;SDS011;647;48.840;9.314;2023-02-11T13:06:07;74.67;;;15.07;;
1308;SDS011;647;48.840;9.314;2023-02-11T13:08:36;73.47;;;14.33;;
1308;SDS011;647;48.840;9.314;2023-02-11T13:11:06;73.83;;;15.90;;
1308;SDS011;647;48.840;9.314;2023-02-11T13:13:36;74.47;;;14.93;;
1308;SDS011;647;48.840;9.314;2023-02-11T13:16:06;72.03;;;14.93;;
1308;SDS011;647;48.840;9.314;2023-02-11T13:18:35;70.30;;;14.27;;
1308;SDS011;647;48.840;9.314;2023-02-11T13:23:54;69.80;;;14.83;;
1308;SDS011;647;48.840;9.314;2023-02-11T13:26:24;70.03;;;13.40;;
1308;SDS011;647;48.840;9.314;2023-02-11T13:28:55;74.40;;;15.17;;
1308;SDS011;647;48.840;9.314;2023-02-11T13:31:23;73.20;;;14.77;;
1308;SDS011;647;48.840;9.314;2023-02-11T13:33:51;69.80;;;14.63;;
1308;SDS011;647;48.840;9.314;2023-02-11T13:36:19;73.67;;;15.23;;
1308;SDS011;647;48.840;9.314;2023-02-11T13:38:55;73.63;;;15.77;;
1308;SDS011;647;48.840;9.314;2023-02-11T13:41:25;77.67;;;19.10;;
1308;SDS011;647;48.840;9.314;2023-02-11T13:43:57;76.07;;;15.50;;
1308;SDS011;647;48.840;9.314;2023-02-11T13:46:25;74.40;;;17.03;;
1308;SDS011;647;48.840;9.314;2023-02-11T13:48:53;73.57;;;19.30;;
1308;SDS011;647;48.840;9.314;2023-02-11T13:51:32;73.50;;;16.87;;
1308;SDS011;647;48.840;9.314;2023-02-11T13:54:01;74.50;;;19.40;;
1308;SDS011;647;48.840;9.314;2023-02-11T13:56:30;72.10;;;15.90;;
1308;SDS011;647;48.840;9.314;2023-02-11T13:58:57;70.33;;;15.30;;
1308;SDS011;647;48.840;9.314;2023-02-11T14:01:38;71.83;;;15.50;;
1308;SDS011;647;48.840;9.314;2023-02-11T14:04:18;70.57;;;15.03;;
1308;SDS011;647;48.840;9.314;2023-02-11T14:10:10;71.37;;;16.10;;
1308;SDS011;647;48.840;9.314;2023-02-11T14:13:04;70.80;;;14.07;;
1308;SDS011;647;48.840;9.314;2023-02-11T14:15:37;70.80;;;14.27;;
1308;SDS011;647;48.840;9.314;2023-02-11T14:20:47;67.47;;;13.50;;
1308;SDS011;647;48.840;9.314;2023-02-11T14:23:21;70.70;;;14.50;;
1308;SDS011;647;48.840;9.314;2023-02-11T14:25:58;67.40;;;13.57;;
1308;SDS011;647;48.840;9.314;2023-02-11T14:28:27;68.47;;;13.87;;
1308;SDS011;647;48.840;9.314;2023-02-11T14:30:58;73.37;;;15.90;;
1308;SDS011;647;48.840;9.314;2023-02-11T14:36:31;71.83;;;15.30;;
1308;SDS011;647;48.840;9.314;2023-02-11T14:39:08;71.20;;;16.17;;
1308;SDS011;647;48.840;9.314;2023-02-11T14:41:42;73.80;;;16.27;;
1308;SDS011;647;48.840;9.314;2023-02-11T14:44:12;69.23;;;15.30;;
1308;SDS011;647;48.840;9.314;2023-02-11T14:46:42;67.60;;;14.37;;
1308;SDS011;647;48.840;9.314;2023-02-11T14:49:11;68.00;;;13.87;;
1308;SDS011;647;48.840;9.314;2023-02-11T14:51:39;71.33;;;14.63;;
1308;SDS011;647;48.840;9.314;2023-02-11T14:54:08;71.90;;;16.03;;
1308;SDS011;647;48.840;9.314;2023-02-11T14:56:40;70.70;;;15.20;;
1308;SDS011;647;48.840;9.314;2023-02-11T14:59:12;73.93;;;16.57;;
1308;SDS011;647;48.840;9.314;2023-02-11T15:01:41;71.97;;;15.13;;
1308;SDS011;647;48.840;9.314;2023-02-11T15:04:21;71.47;;;15.07;;
1308;SDS011;647;48.840;9.314;2023-02-11T15:06:48;69.60;;;14.80;;
1308;SDS011;647;48.840;9.314;2023-02-11T15:09:16;68.00;;;13.43;;
1308;SDS011;647;48.840;9.314;2023-02-11T15:11:46;71.67;;;16.37;;
1308;SDS011;647;48.840;9.314;2023-02-11T15:14:16;76.13;;;15.90;;
1308;SDS011;647;48.840;9.314;2023-02-11T15:16:45;74.20;;;18.20;;
1308;SDS011;647;48.840;9.314;2023-02-11T15:19:17;73.00;;;16.10;;
1308;SDS011;647;48.840;9.314;2023-02-11T15:21:45;72.17;;;16.80;;
1308;SDS011;647;48.840;9.314;2023-02-11T15:24:23;75.40;;;17.73;;
1308;SDS011;647;48.840;9.314;2023-02-11T15:26:59;72.23;;;15.50;;
1308;SDS011;647;48.840;9.314;2023-02-11T15:29:27;71.20;;;14.93;;
1308;SDS011;647;48.840;9.314;2023-02-11T15:32:04;79.00;;;17.23;;
1308;SDS011;647;48.840;9.314;2023-02-11T15:34:31;74.57;;;15.67;;
1308;SDS011;647;48.840;9.314;2023-02-11T15:36:59;73.50;;;17.13;;
1308;SDS011;647;48.840;9.314;2023-02-11T15:39:30;71.00;;;15.70;;